Jackson County Reynolds Field
KJXN : now visible

Airfield :











YOU CAN JOIN US ON...

 
LOGIN :

Register | Disclaimer

   EN    FR    IT 

 









Legend :    VFR   Marginal VFR   IFR   Intensive IFR   Very Intensive IFR
Visi :
Ceiling :
>= 8 km
>= 3000ft
5 to 8 km
1000 to 3000 ft
1500m to 5 km
500 to 1000 ft
800 to 1500m
200 to 500 ft
< 800m
< 200 ft
Symbols :   Thunderstorms  Fog  Heavy snow  Heavy precipitations  Wind > 20 kt






- Airport Elevation : 1001 ft


KJXN - Jackson County Reynolds Field

CURRENT METAR :
  • 071038Z AUTO 00000KT 3SM BR SCT017 BKN085 03/02 A2999 RMK AO2 T00330022

EXPIRED METARs :
  • 070956Z AUTO 00000KT 5SM BR OVC018 04/03 A2999 RMK AO2 SLP163 T00390028
  • 070913Z AUTO 00000KT 3SM BR OVC019 03/02 A2999 RMK AO2 T00330022
  • 070906Z AUTO 27003KT 1 1/2SM BR BKN020 02/01 A2999 RMK AO2 T00220011
  • 070841Z AUTO 00000KT 2SM BR SCT022 02/02 A2999 RMK AO2 T00220017
  • 070822Z AUTO 00000KT 7SM SCT022 04/03 A2998 RMK AO2 T00390028
  • 070756Z AUTO 00000KT 8SM OVC020 05/03 A2998 RMK AO2 SLP159 T00500028

TAF KJXN
Valid from the 07 at 08:00 until the 08 at 06:00 UTC


070812Z 0708/0806 31003KT 6SM BR BKN020
FM071100 00000KT 1 1/2SM BR OVC003
FM071230 18005KT 3SM BR SCT004 BKN040
FM071330 27004KT P6SM BKN040
FM071500 27008KT P6SM VCSH SCT015 BKN030
FM071900 30010G18KT P6SM VCTS BKN030CB
KZOB FIR / North America



MET'MAP, your aeronautical weather chart ! - Copyright ORBIFLY December 2007 - Disclaimer

ORBIFLY MET'MAP TEAM :

Programming & Development : Alexandra Zaïnal
Concept & original design : Baudouin d'Aumeries
Assistance for programming : Marc-Olivier Méhu
Technical & hardware support : Manuel Goepfert

Contact : metmap@orbifly.com




SOURCES & CREDITS :

   NOAA       Earth
Advisory